Time;durP1;ratioP1;P1;durP2;ratioP2;P2;SDS_P1;SDS_P2;PMS_P1;PMS_P2;Temp;Humidity;BMP_temperature;BMP_pressure;BME280_temperature;BME280_humidity;BME280_pressure;Samples;Min_cycle;Max_cycle;Signal;HPM_P1;HPM_P2
2023/09/02 00:01:16;;;;;;;18.90;16.23;;;19.70;99.90;;;;;;5092265;28;20028;-82
2023/09/02 00:03:42;;;;;;;23.92;18.35;;;19.80;99.90;;;;;;5075421;28;20036;-81
2023/09/02 00:06:07;;;;;;;21.40;18.15;;;19.80;99.90;;;;;;5092461;28;20059;-81
2023/09/02 00:08:33;;;;;;;16.02;14.30;;;19.70;99.90;;;;;;5091928;28;20024;-81
2023/09/02 00:10:59;;;;;;;25.98;20.88;;;19.70;99.90;;;;;;5093397;28;20036;-82
2023/09/02 00:13:24;;;;;;;19.92;17.35;;;19.70;99.90;;;;;;5075324;28;20483;-81
2023/09/02 00:15:50;;;;;;;14.73;13.23;;;19.60;99.90;;;;;;5093554;28;20077;-82
2023/09/02 00:18:15;;;;;;;18.40;15.77;;;19.60;99.90;;;;;;5075496;28;20024;-82
2023/09/02 00:20:41;;;;;;;19.65;17.10;;;19.60;99.90;;;;;;5091863;28;20101;-81
2023/09/02 00:23:07;;;;;;;15.95;14.32;;;19.50;99.90;;;;;;5092104;28;20058;-82
2023/09/02 00:25:32;;;;;;;19.05;15.63;;;19.50;99.90;;;;;;5092304;28;20414;-82
2023/09/02 00:27:58;;;;;;;18.83;15.00;;;19.50;99.90;;;;;;5092046;28;20029;-82
2023/09/02 00:30:24;;;;;;;16.95;13.52;;;19.50;99.90;;;;;;5093441;28;20078;-81
2023/09/02 00:32:49;;;;;;;17.40;14.73;;;19.50;99.90;;;;;;5075032;28;20062;-81
2023/09/02 00:35:15;;;;;;;13.75;11.77;;;19.50;99.90;;;;;;5092615;28;20123;-81
2023/09/02 00:37:41;;;;;;;17.98;16.02;;;19.50;99.90;;;;;;5091612;28;20035;-81
2023/09/02 00:40:12;;;;;;;11.70;10.50;;;19.50;99.90;;;;;;5091423;28;20036;-81
2023/09/02 00:42:39;;;;;;;16.52;13.60;;;19.50;99.90;;;;;;5095451;28;20114;-81
2023/09/02 00:45:05;;;;;;;15.27;12.88;;;19.60;99.90;;;;;;5096675;28;20452;-82
2023/09/02 00:47:31;;;;;;;12.80;11.50;;;19.60;99.90;;;;;;5095353;28;20524;-82
2023/09/02 00:49:58;;;;;;;19.10;16.35;;;19.60;99.90;;;;;;5096540;28;20107;-82
2023/09/02 00:52:23;;;;;;;19.60;16.58;;;19.70;99.90;;;;;;5095098;28;20472;-82
2023/09/02 00:54:50;;;;;;;18.15;15.13;;;19.70;99.90;;;;;;5078313;28;20049;-80
2023/09/02 00:57:15;;;;;;;14.65;13.15;;;19.70;99.90;;;;;;5094848;28;20028;-81
2023/09/02 00:59:41;;;;;;;15.35;13.15;;;19.60;99.90;;;;;;5078891;28;20346;-81
2023/09/02 01:02:08;;;;;;;18.75;15.43;;;19.60;99.90;;;;;;5094770;28;20032;-81
2023/09/02 01:04:34;;;;;;;15.13;13.55;;;19.60;99.90;;;;;;5096305;28;20024;-81
2023/09/02 01:07:02;;;;;;;19.65;17.13;;;19.70;99.90;;;;;;5095558;28;20127;-81
2023/09/02 01:09:30;;;;;;;16.52;14.02;;;19.70;99.90;;;;;;5095501;28;20119;-80
2023/09/02 01:11:56;;;;;;;14.32;12.82;;;19.70;99.90;;;;;;5094798;28;20495;-81
2023/09/02 01:14:22;;;;;;;14.07;12.73;;;19.60;99.90;;;;;;5094995;28;20059;-81
2023/09/02 01:16:48;;;;;;;15.07;13.13;;;19.70;99.90;;;;;;5077949;28;20071;-80
2023/09/02 01:19:16;;;;;;;15.63;13.52;;;19.70;99.90;;;;;;5077848;28;20162;-81
2023/09/02 01:21:45;;;;;;;17.00;14.45;;;19.60;99.90;;;;;;5095984;28;20028;-81
2023/09/02 01:24:27;;;;;;;13.18;11.80;;;19.60;99.90;;;;;;5094666;28;20027;-81
2023/09/02 01:27:11;;;;;;;14.13;12.73;;;19.60;99.90;;;;;;5095098;28;20354;-81
2023/09/02 01:29:43;;;;;;;13.68;11.98;;;19.60;99.90;;;;;;5094469;28;20035;-82
2023/09/02 01:32:12;;;;;;;;;;;19.60;99.90;;;;;;5095680;28;20441;-81
2023/09/02 01:34:38;;;;;;;14.63;12.43;;;19.60;99.90;;;;;;5096250;28;19991;-81
2023/09/02 01:37:07;;;;;;;17.02;14.88;;;19.60;99.90;;;;;;5094678;28;20028;-82
2023/09/02 01:39:35;;;;;;;21.67;18.13;;;19.60;99.90;;;;;;5095875;28;20020;-81
2023/09/02 01:42:01;;;;;;;17.10;15.27;;;19.60;99.90;;;;;;5094377;28;20047;-81
2023/09/02 01:44:28;;;;;;;12.73;11.43;;;19.50;99.90;;;;;;5094499;28;20032;-82
2023/09/02 01:46:55;;;;;;;14.85;13.02;;;19.50;99.90;;;;;;5096083;28;20111;-82
2023/09/02 01:49:21;;;;;;;12.45;11.15;;;19.50;99.90;;;;;;5094966;28;20039;-82
2023/09/02 01:51:48;;;;;;;13.75;12.35;;;19.60;99.90;;;;;;5093523;28;20036;-82
2023/09/02 01:54:14;;;;;;;19.02;15.98;;;19.60;99.90;;;;;;5094616;28;20070;-82
2023/09/02 01:56:40;;;;;;;15.32;13.75;;;19.60;99.90;;;;;;5094174;28;20028;-82
2023/09/02 01:59:05;;;;;;;14.73;13.15;;;19.60;99.90;;;;;;5095535;28;20054;-82
2023/09/02 02:01:33;;;;;;;13.15;10.90;;;19.60;99.90;;;;;;5094941;28;20472;-82
2023/09/02 02:04:02;;;;;;;17.60;14.23;;;19.60;99.90;;;;;;5094254;28;20032;-82
2023/09/02 02:06:30;;;;;;;14.88;13.02;;;19.60;99.90;;;;;;5095129;28;20483;-82
2023/09/02 02:09:05;;;;;;;16.33;13.70;;;19.60;99.90;;;;;;5095349;28;20031;-82
2023/09/02 02:11:35;;;;;;;13.85;12.30;;;19.60;99.90;;;;;;5095064;28;20053;-82
2023/09/02 02:14:05;;;;;;;16.20;13.60;;;19.60;99.90;;;;;;5094710;28;20032;-82
2023/09/02 02:16:31;;;;;;;15.07;13.48;;;19.60;99.90;;;;;;5110818;28;20081;-82
2023/09/02 02:18:58;;;;;;;12.63;11.25;;;19.60;99.90;;;;;;5094151;28;20093;-82
2023/09/02 02:21:24;;;;;;;13.98;12.55;;;19.60;99.90;;;;;;5094337;28;20368;-82
2023/09/02 02:23:50;;;;;;;14.77;13.10;;;19.60;99.90;;;;;;5093540;28;20028;-82
2023/09/02 02:26:16;;;;;;;21.08;17.38;;;19.60;99.90;;;;;;5093658;28;20068;-82
2023/09/02 02:28:42;;;;;;;17.55;14.55;;;19.60;99.90;;;;;;5077006;28;20035;-81
2023/09/02 02:31:08;;;;;;;18.08;14.52;;;19.60;99.90;;;;;;5093321;28;20028;-81
2023/09/02 02:33:36;;;;;;;19.65;16.30;;;19.50;99.90;;;;;;5094595;28;20083;-82
2023/09/02 02:36:03;;;;;;;17.73;14.68;;;19.50;99.90;;;;;;5093266;28;20172;-82
2023/09/02 02:38:28;;;;;;;19.25;14.57;;;19.50;99.90;;;;;;5093344;28;20124;-82
2023/09/02 02:40:54;;;;;;;21.38;16.02;;;19.50;99.90;;;;;;5094429;28;20135;-81
2023/09/02 02:43:25;;;;;;;13.77;11.10;;;19.40;99.90;;;;;;5093955;28;20426;-82
2023/09/02 02:45:52;;;;;;;22.75;16.27;;;19.50;99.90;;;;;;5093700;28;20024;-82
2023/09/02 02:48:19;;;;;;;19.92;13.32;;;19.50;99.90;;;;;;5094368;28;20060;-81
2023/09/02 02:50:44;;;;;;;19.15;14.95;;;19.50;99.90;;;;;;5092762;28;20028;-81
2023/09/02 02:53:10;;;;;;;14.57;12.05;;;19.50;99.90;;;;;;5093325;28;20043;-82
2023/09/02 02:55:36;;;;;;;16.00;12.80;;;19.50;99.90;;;;;;5094184;28;20100;-82
2023/09/02 02:58:01;;;;;;;19.40;14.52;;;19.50;99.90;;;;;;5093483;28;20349;-82
2023/09/02 03:00:27;;;;;;;16.33;12.32;;;19.60;99.90;;;;;;5093248;28;20032;-83
2023/09/02 03:02:53;;;;;;;21.85;14.73;;;19.60;99.90;;;;;;5093736;28;20032;-83
2023/09/02 03:05:20;;;;;;;16.48;13.63;;;19.60;99.90;;;;;;5093118;28;20114;-83
2023/09/02 03:07:47;;;;;;;25.83;18.50;;;19.60;99.90;;;;;;5076591;28;20028;-82
2023/09/02 03:10:13;;;;;;;17.17;13.48;;;19.60;99.90;;;;;;5076798;28;20432;-83
2023/09/02 03:12:38;;;;;;;17.23;12.90;;;19.70;99.90;;;;;;5092638;28;20028;-82
2023/09/02 03:15:05;;;;;;;32.80;21.98;;;19.60;99.90;;;;;;5092613;28;20393;-83
2023/09/02 03:17:30;;;;;;;31.55;22.20;;;19.60;99.90;;;;;;5075816;28;20071;-82
2023/09/02 03:19:56;;;;;;;27.85;19.83;;;19.50;99.90;;;;;;5093020;28;20068;-83
2023/09/02 03:22:22;;;;;;;21.25;15.75;;;19.40;99.90;;;;;;5092553;28;20059;-82
2023/09/02 03:24:53;;;;;;;23.20;15.68;;;19.40;99.90;;;;;;5093817;28;20028;-83
2023/09/02 03:27:19;;;;;;;22.90;15.60;;;19.40;99.90;;;;;;5092312;28;20032;-83
2023/09/02 03:29:48;;;;;;;19.88;14.30;;;19.40;99.90;;;;;;5093568;28;20040;-83
2023/09/02 03:32:14;;;;;;;23.40;16.00;;;19.40;99.90;;;;;;5092573;28;20043;-83
2023/09/02 03:34:40;;;;;;;29.35;18.83;;;19.40;99.90;;;;;;5094446;28;20080;-82
2023/09/02 03:37:05;;;;;;;23.98;16.48;;;19.50;99.90;;;;;;5093408;28;20111;-82
2023/09/02 03:39:33;;;;;;;31.90;20.55;;;19.50;99.90;;;;;;5094534;28;20059;-83
2023/09/02 03:41:59;;;;;;;25.48;16.98;;;19.50;99.90;;;;;;5093066;28;20189;-83
2023/09/02 03:44:25;;;;;;;23.25;16.15;;;19.50;99.90;;;;;;5093864;28;20055;-83
2023/09/02 03:46:51;;;;;;;21.77;14.00;;;19.50;99.90;;;;;;5094118;28;20077;-82
2023/09/02 03:49:17;;;;;;;17.10;12.57;;;19.50;99.90;;;;;;5075204;28;20046;-82
2023/09/02 03:51:43;;;;;;;19.33;13.88;;;19.50;99.90;;;;;;5076377;28;20123;-83
2023/09/02 03:54:09;;;;;;;24.25;17.17;;;19.50;99.90;;;;;;5093822;28;20346;-82
2023/09/02 03:56:36;;;;;;;14.45;11.63;;;19.50;99.90;;;;;;5092284;28;20036;-83
2023/09/02 03:59:11;;;;;;;18.73;13.60;;;19.50;99.90;;;;;;5093711;28;20016;-82
2023/09/02 04:01:37;;;;;;;20.92;15.73;;;19.50;99.90;;;;;;5093601;28;20032;-82
2023/09/02 04:04:03;;;;;;;15.95;12.48;;;19.50;99.90;;;;;;5092520;28;20169;-83
2023/09/02 04:06:28;;;;;;;22.50;14.35;;;19.50;99.90;;;;;;5093525;28;20115;-82
2023/09/02 04:08:54;;;;;;;14.45;12.07;;;19.50;99.90;;;;;;5075490;28;20052;-83
2023/09/02 04:11:21;;;;;;;20.83;13.75;;;19.60;99.90;;;;;;5093798;28;20038;-82
2023/09/02 04:13:46;;;;;;;18.77;13.70;;;19.60;99.90;;;;;;5093429;28;20028;-83
2023/09/02 04:16:12;;;;;;;19.15;14.65;;;19.60;99.90;;;;;;5095926;28;20039;-82
2023/09/02 04:18:38;;;;;;;25.42;16.25;;;19.50;99.90;;;;;;5095789;28;20024;-83
2023/09/02 04:21:04;;;;;;;21.50;15.88;;;19.50;99.90;;;;;;5095801;28;20115;-83
2023/09/02 04:23:30;;;;;;;20.17;14.90;;;19.50;99.90;;;;;;5097119;28;20480;-82
2023/09/02 04:25:58;;;;;;;17.25;12.77;;;19.50;99.90;;;;;;5096603;28;20077;-83
2023/09/02 04:28:24;;;;;;;32.15;16.58;;;19.50;99.90;;;;;;5096298;28;20032;-83
2023/09/02 04:30:53;;;;;;;38.65;19.17;;;19.60;99.90;;;;;;5095800;28;20032;-82
2023/09/02 04:33:21;;;;;;;35.42;18.67;;;19.60;99.90;;;;;;5096584;28;20119;-82
2023/09/02 04:35:47;;;;;;;21.35;15.88;;;19.50;99.90;;;;;;5096754;28;20031;-82
2023/09/02 04:38:12;;;;;;;24.20;14.77;;;19.50;99.90;;;;;;5095705;28;20394;-82
2023/09/02 04:40:39;;;;;;;19.50;14.43;;;19.50;99.90;;;;;;5079083;28;20056;-82
2023/09/02 04:43:06;;;;;;;25.60;14.02;;;19.50;99.90;;;;;;5097094;28;20032;-83
2023/09/02 04:45:33;;;;;;;16.67;13.65;;;19.50;99.90;;;;;;5096938;28;20028;-82
2023/09/02 04:47:59;;;;;;;20.65;15.55;;;19.50;99.90;;;;;;5097007;28;20059;-82
2023/09/02 04:50:24;;;;;;;17.98;13.60;;;19.40;99.90;;;;;;5096625;28;20055;-81
2023/09/02 04:52:50;;;;;;;23.23;16.13;;;19.40;99.90;;;;;;5095431;28;20029;-83
2023/09/02 04:55:19;;;;;;;38.72;19.48;;;19.40;99.90;;;;;;5095974;28;20059;-82
2023/09/02 04:57:45;;;;;;;24.58;17.75;;;19.30;99.90;;;;;;5095665;28;20024;-82
2023/09/02 05:00:12;;;;;;;31.63;16.30;;;19.20;99.90;;;;;;5095041;28;20084;-82
2023/09/02 05:02:38;;;;;;;15.13;12.35;;;19.10;99.90;;;;;;5096334;28;20036;-82
2023/09/02 05:05:04;;;;;;;21.50;16.40;;;19.00;99.90;;;;;;5095220;28;20024;-83
2023/09/02 05:07:30;;;;;;;17.63;14.25;;;19.10;99.90;;;;;;5078161;28;20028;-83
2023/09/02 05:09:55;;;;;;;21.95;15.68;;;19.10;99.90;;;;;;5077901;28;20399;-82
2023/09/02 05:12:21;;;;;;;22.42;13.60;;;19.10;99.90;;;;;;5094629;28;20039;-82
2023/09/02 05:14:46;;;;;;;12.07;10.07;;;19.20;99.90;;;;;;5095174;28;20392;-82
2023/09/02 05:17:12;;;;;;;27.05;19.42;;;19.20;99.90;;;;;;5096353;28;20085;-81
2023/09/02 05:19:38;;;;;;;17.67;14.65;;;19.20;99.90;;;;;;5095277;28;20028;-82
2023/09/02 05:22:03;;;;;;;15.13;11.85;;;19.20;99.90;;;;;;5094788;28;20073;-82
2023/09/02 05:24:29;;;;;;;18.73;14.63;;;19.20;99.90;;;;;;5095037;28;20028;-82
2023/09/02 05:26:55;;;;;;;23.83;17.73;;;19.20;99.90;;;;;;5076792;28;20024;-82
2023/09/02 05:29:21;;;;;;;27.98;17.13;;;19.20;99.90;;;;;;5096127;28;20028;-82
2023/09/02 05:31:46;;;;;;;24.60;17.75;;;19.20;99.90;;;;;;5077664;28;20040;-81
2023/09/02 05:34:12;;;;;;;15.25;12.25;;;19.30;99.90;;;;;;5096014;28;20036;-82
2023/09/02 05:36:37;;;;;;;22.65;16.23;;;19.30;99.90;;;;;;5094556;28;20039;-82
2023/09/02 05:39:03;;;;;;;17.10;13.20;;;19.30;99.90;;;;;;5094206;28;20361;-82
2023/09/02 05:41:29;;;;;;;28.63;19.25;;;19.20;99.90;;;;;;5095791;28;20121;-82
2023/09/02 05:43:54;;;;;;;34.38;19.25;;;19.30;99.90;;;;;;5077479;28;20035;-82
2023/09/02 05:46:20;;;;;;;20.38;15.55;;;19.20;99.90;;;;;;5095495;28;20032;-81
2023/09/02 05:48:46;;;;;;;34.00;19.98;;;19.20;99.90;;;;;;5095223;28;20032;-81
2023/09/02 05:51:11;;;;;;;18.95;14.70;;;19.10;99.90;;;;;;5094123;28;20032;-82
2023/09/02 05:53:37;;;;;;;28.83;20.17;;;19.10;99.90;;;;;;5095309;28;20039;-81
2023/09/02 05:56:03;;;;;;;35.78;20.42;;;19.10;99.90;;;;;;5095305;28;20032;-82
2023/09/02 05:58:28;;;;;;;18.50;14.98;;;19.10;99.90;;;;;;5095046;28;20025;-82
2023/09/02 06:00:54;;;;;;;15.52;12.73;;;19.00;99.90;;;;;;5095558;28;20115;-82
2023/09/02 06:03:20;;;;;;;13.20;11.27;;;19.00;99.90;;;;;;5094099;28;20028;-82
2023/09/02 06:05:46;;;;;;;28.63;17.80;;;19.10;99.90;;;;;;5094010;28;20032;-82
2023/09/02 06:08:11;;;;;;;15.57;12.95;;;19.20;99.90;;;;;;5095396;28;20034;-82
2023/09/02 06:10:37;;;;;;;13.35;11.13;;;19.10;99.90;;;;;;5095067;28;20028;-82
2023/09/02 06:13:03;;;;;;;19.27;16.20;;;19.20;99.90;;;;;;5095691;28;20514;-82
2023/09/02 06:15:29;;;;;;;24.52;17.83;;;19.20;99.90;;;;;;5094653;28;20533;-82
2023/09/02 06:17:54;;;;;;;26.67;16.00;;;19.20;99.90;;;;;;5094013;28;20028;-83
2023/09/02 06:20:22;;;;;;;31.35;16.50;;;19.10;99.90;;;;;;5093405;28;20052;-82
2023/09/02 06:22:48;;;;;;;24.10;17.20;;;19.10;99.90;;;;;;5095085;28;20531;-82
2023/09/02 06:25:14;;;;;;;14.85;12.63;;;19.10;99.90;;;;;;5093856;28;20055;-83
2023/09/02 06:27:39;;;;;;;16.08;12.32;;;19.00;99.90;;;;;;5094972;28;20107;-82
2023/09/02 06:30:06;;;;;;;19.98;15.77;;;19.10;99.90;;;;;;5093788;28;20487;-83
2023/09/02 06:32:33;;;;;;;31.67;18.58;;;19.20;99.90;;;;;;5094600;28;20028;-82
2023/09/02 06:34:58;;;;;;;15.02;12.55;;;19.10;99.90;;;;;;5093361;28;20053;-83
2023/09/02 06:37:28;;;;;;;14.85;12.35;;;19.20;99.90;;;;;;5093335;28;20024;-83
2023/09/02 06:39:54;;;;;;;25.40;17.35;;;19.20;99.90;;;;;;5093895;28;20032;-84
2023/09/02 06:42:20;;;;;;;16.25;14.18;;;19.20;99.90;;;;;;5092943;28;20059;-84
2023/09/02 06:44:47;;;;;;;18.58;15.35;;;19.10;99.90;;;;;;5093225;28;20030;-83
2023/09/02 06:47:14;;;;;;;23.90;19.30;;;19.20;99.90;;;;;;5076629;28;20057;-83
2023/09/02 06:49:39;;;;;;;23.25;18.83;;;19.10;99.90;;;;;;5094437;28;20111;-83
2023/09/02 06:52:05;;;;;;;16.55;14.75;;;19.00;99.90;;;;;;5092825;28;20103;-83
2023/09/02 06:54:30;;;;;;;22.00;18.35;;;19.00;99.90;;;;;;5093008;28;20115;-83
2023/09/02 06:56:56;;;;;;;24.25;18.33;;;18.80;99.90;;;;;;5094524;28;20075;-84
2023/09/02 06:59:25;;;;;;;20.83;17.15;;;18.80;99.90;;;;;;5076077;28;20028;-84
2023/09/02 07:01:51;;;;;;;23.75;19.27;;;18.70;99.90;;;;;;5077050;28;20387;-84
2023/09/02 07:04:17;;;;;;;24.45;19.75;;;18.70;99.90;;;;;;5094142;28;20043;-83
2023/09/02 07:06:42;;;;;;;30.65;21.10;;;18.70;99.90;;;;;;5094145;28;20028;-84
2023/09/02 07:09:08;;;;;;;22.25;17.75;;;18.70;99.90;;;;;;5093072;28;20028;-84
2023/09/02 07:11:34;;;;;;;16.42;14.13;;;18.60;99.90;;;;;;5092722;28;20401;-84
2023/09/02 07:14:00;;;;;;;22.55;16.75;;;18.60;99.90;;;;;;5092912;28;20032;-84
2023/09/02 07:16:26;;;;;;;21.35;17.40;;;18.70;99.90;;;;;;5094794;28;20391;-84
2023/09/02 07:18:52;;;;;;;22.55;17.92;;;18.70;99.90;;;;;;5094536;28;20032;-84
2023/09/02 07:21:22;;;;;;;13.68;12.23;;;18.70;99.90;;;;;;5076518;28;20484;-84
2023/09/02 07:23:49;;;;;;;20.55;17.10;;;18.70;99.90;;;;;;5094221;28;20028;-80
2023/09/02 07:26:14;;;;;;;16.92;14.88;;;18.70;99.90;;;;;;5094093;28;20024;-85
2023/09/02 07:28:42;;;;;;;15.23;13.50;;;18.70;99.90;;;;;;5092813;28;20038;-84
2023/09/02 07:31:08;;;;;;;22.02;17.25;;;18.80;99.90;;;;;;5093322;28;20024;-84
2023/09/02 07:33:34;;;;;;;17.23;13.82;;;18.80;99.90;;;;;;5092893;28;20036;-84
2023/09/02 07:36:11;;;;;;;16.15;12.95;;;18.80;99.90;;;;;;5094583;28;20060;-85
2023/09/02 07:38:38;;;;;;;22.02;16.38;;;18.90;99.90;;;;;;5093509;28;20063;-84
2023/09/02 07:41:04;;;;;;;22.42;17.88;;;18.90;99.90;;;;;;5093914;28;20052;-84
2023/09/02 07:43:29;;;;;;;23.55;17.70;;;19.00;99.90;;;;;;5093869;28;20073;-85
2023/09/02 07:45:55;;;;;;;23.23;17.98;;;19.00;99.90;;;;;;5094224;28;20063;-84
2023/09/02 07:48:21;;;;;;;20.52;16.08;;;18.90;99.90;;;;;;5093974;28;20031;-84
2023/09/02 07:50:47;;;;;;;19.08;15.93;;;19.00;99.90;;;;;;5079449;28;20032;-84
2023/09/02 07:53:13;;;;;;;16.30;12.88;;;19.00;99.90;;;;;;5097104;28;20472;-84
2023/09/02 07:55:39;;;;;;;14.13;12.45;;;19.00;99.90;;;;;;5098100;28;20349;-85
2023/09/02 07:58:05;;;;;;;20.15;15.98;;;19.10;99.90;;;;;;5079705;28;20034;-84
2023/09/02 08:00:33;;;;;;;23.23;18.55;;;19.20;99.90;;;;;;5098238;28;20020;-84
2023/09/02 08:02:59;;;;;;;23.25;18.52;;;19.20;99.90;;;;;;5097977;28;20527;-84
2023/09/02 08:05:25;;;;;;;17.80;14.43;;;19.10;99.90;;;;;;5098232;28;20103;-84
2023/09/02 08:07:51;;;;;;;12.82;10.75;;;19.10;99.90;;;;;;5097858;28;20452;-85
2023/09/02 08:10:17;;;;;;;21.95;16.58;;;19.10;99.90;;;;;;5098247;28;20028;-84
2023/09/02 08:12:42;;;;;;;23.33;18.05;;;19.10;99.90;;;;;;5097048;28;20036;-84
2023/09/02 08:15:09;;;;;;;14.20;11.40;;;19.20;99.90;;;;;;5098324;28;20032;-84
2023/09/02 08:17:42;;;;;;;13.38;11.63;;;19.20;99.90;;;;;;5098176;28;20020;-84
2023/09/02 08:20:09;;;;;;;22.08;18.23;;;19.30;99.90;;;;;;5097998;28;20024;-84
2023/09/02 08:22:39;;;;;;;14.80;12.90;;;19.30;99.90;;;;;;5097714;28;20043;-83
2023/09/02 08:25:06;;;;;;;20.38;16.42;;;19.30;99.90;;;;;;5097764;28;20157;-78
2023/09/02 08:27:32;;;;;;;23.48;18.23;;;19.30;99.90;;;;;;5097127;28;20035;-84
2023/09/02 08:29:57;;;;;;;21.83;17.23;;;19.20;99.90;;;;;;5096265;28;20457;-79
2023/09/02 08:32:23;;;;;;;24.65;18.95;;;19.20;99.90;;;;;;5079103;28;20039;-84
2023/09/02 08:34:49;;;;;;;12.25;10.93;;;19.20;99.90;;;;;;5095739;28;20102;-84
2023/09/02 08:37:14;;;;;;;23.05;19.48;;;19.20;99.90;;;;;;5097248;28;20032;-84
2023/09/02 08:39:40;;;;;;;14.63;12.80;;;19.20;99.90;;;;;;5096792;28;20071;-84
2023/09/02 08:42:07;;;;;;;21.55;17.30;;;19.20;99.90;;;;;;5096718;28;20216;-85
2023/09/02 08:44:36;;;;;;;23.52;19.40;;;19.30;99.90;;;;;;5099456;28;20039;-86
2023/09/02 08:47:02;;;;;;;16.15;13.98;;;19.30;99.90;;;;;;5099474;28;20430;-85
2023/09/02 08:49:29;;;;;;;22.88;17.90;;;19.30;99.90;;;;;;5098744;28;20055;-84
2023/09/02 08:51:55;;;;;;;17.60;14.00;;;19.30;99.90;;;;;;5099124;28;20031;-84
2023/09/02 08:54:22;;;;;;;23.92;18.83;;;19.30;99.90;;;;;;5097455;28;20456;-86
2023/09/02 08:56:52;;;;;;;21.30;17.50;;;19.40;99.90;;;;;;5100114;28;20476;-85
2023/09/02 08:59:18;;;;;;;15.48;13.43;;;19.30;99.90;;;;;;5100139;28;20038;-86
2023/09/02 09:01:45;;;;;;;23.35;17.88;;;19.40;99.90;;;;;;5081505;28;20032;-85
2023/09/02 09:04:15;;;;;;;22.70;18.50;;;19.50;99.90;;;;;;5097080;28;20028;-84
2023/09/02 09:06:41;;;;;;;22.83;18.05;;;19.50;99.90;;;;;;5096621;28;20043;-86
2023/09/02 09:09:09;;;;;;;22.00;17.17;;;19.50;99.90;;;;;;5095180;28;20031;-86
2023/09/02 09:11:42;;;;;;;20.80;16.17;;;19.50;99.90;;;;;;5097022;28;20043;-82
2023/09/02 09:14:24;;;;;;;25.88;19.35;;;19.60;99.90;;;;;;5094899;28;20024;-85
2023/09/02 09:16:54;;;;;;;23.17;17.67;;;19.50;99.90;;;;;;5095310;28;20122;-85
2023/09/02 09:19:22;;;;;;;14.30;11.85;;;19.50;99.90;;;;;;5095698;28;20024;-85
2023/09/02 09:21:48;;;;;;;21.30;17.30;;;19.50;99.90;;;;;;5096454;28;20099;-85
2023/09/02 09:24:14;;;;;;;18.55;14.45;;;19.60;99.90;;;;;;5078665;28;20055;-85
2023/09/02 09:26:43;;;;;;;19.77;14.45;;;19.70;99.90;;;;;;5094621;28;20028;-86
2023/09/02 09:29:16;;;;;;;18.45;14.20;;;19.80;99.90;;;;;;5095865;28;20046;-86
2023/09/02 09:31:43;;;;;;;16.80;14.52;;;19.90;99.90;;;;;;5094676;28;20024;-86
2023/09/02 09:34:10;;;;;;;21.23;16.27;;;19.80;99.90;;;;;;5094788;28;20032;-86
2023/09/02 09:36:36;;;;;;;14.90;12.43;;;19.90;99.90;;;;;;5096031;28;20028;-86
2023/09/02 09:39:04;;;;;;;19.52;16.05;;;19.90;99.90;;;;;;5095204;28;20039;-86
2023/09/02 09:41:31;;;;;;;18.55;15.43;;;19.90;99.90;;;;;;5095618;28;20048;-85
2023/09/02 09:44:02;;;;;;;17.98;14.15;;;19.90;99.90;;;;;;5094410;28;20066;-83
2023/09/02 09:46:28;;;;;;;9.10;8.07;;;19.90;99.90;;;;;;5095689;28;20024;-84
2023/09/02 09:49:00;;;;;;;13.82;12.15;;;20.00;99.90;;;;;;5094721;28;20250;-83
2023/09/02 09:51:27;;;;;;;;;;;20.00;99.90;;;;;;5096344;28;20200;-83
2023/09/02 09:53:52;;;;;;;16.30;12.60;;;20.00;99.90;;;;;;5095719;28;20248;-85
2023/09/02 09:56:18;;;;;;;17.75;13.07;;;20.10;99.90;;;;;;5096162;28;20039;-83
2023/09/02 09:58:45;;;;;;;15.63;13.13;;;20.10;99.90;;;;;;5095355;28;20024;-84
2023/09/02 10:01:20;;;;;;;16.23;14.15;;;20.10;99.90;;;;;;5094506;28;20032;-82
2023/09/02 10:03:46;;;;;;;14.25;11.88;;;20.20;99.90;;;;;;5096034;28;20024;-81
2023/09/02 10:06:12;;;;;;;15.52;13.10;;;20.20;99.90;;;;;;5094020;28;20032;-83
2023/09/02 10:08:54;;;;;;;16.17;12.52;;;20.30;99.90;;;;;;5093895;28;20081;-83
2023/09/02 10:11:21;;;;;;;15.55;13.65;;;20.40;99.90;;;;;;5095242;28;20025;-83
2023/09/02 10:13:50;;;;;;;18.17;14.23;;;20.50;99.90;;;;;;5094803;28;20123;-83
2023/09/02 10:16:17;;;;;;;16.48;12.90;;;20.50;99.90;;;;;;5095468;28;20031;-82
2023/09/02 10:18:47;;;;;;;19.95;14.73;;;20.50;99.90;;;;;;5093799;28;20032;-82
2023/09/02 10:21:14;;;;;;;15.75;13.25;;;20.50;99.90;;;;;;5094863;28;20020;-81
2023/09/02 10:23:48;;;;;;;13.98;12.50;;;20.50;99.90;;;;;;5093588;28;20032;-83
2023/09/02 10:26:29;;;;;;;13.52;12.13;;;20.40;99.90;;;;;;5094211;28;20439;-84
2023/09/02 10:28:59;;;;;;;19.10;15.07;;;20.50;99.90;;;;;;5093599;28;20077;-84
2023/09/02 10:31:30;;;;;;;16.80;13.55;;;20.50;99.90;;;;;;5095179;28;20050;-83
2023/09/02 10:34:06;;;;;;;12.33;11.03;;;20.40;99.90;;;;;;5094983;28;20484;-83
2023/09/02 10:36:36;;;;;;;12.73;11.43;;;20.40;99.90;;;;;;5095358;28;20722;-83
2023/09/02 10:39:07;;;;;;;15.95;14.25;;;20.60;99.90;;;;;;5094966;28;20024;-84
2023/09/02 10:41:34;;;;;;;13.48;11.48;;;20.60;99.90;;;;;;5094696;28;20040;-82
2023/09/02 10:44:01;;;;;;;12.25;11.02;;;20.60;99.90;;;;;;5076906;28;20028;-83
2023/09/02 10:46:27;;;;;;;9.88;8.60;;;20.60;99.90;;;;;;5093298;28;20085;-84
2023/09/02 10:48:53;;;;;;;15.65;13.65;;;20.70;99.90;;;;;;5093420;28;20043;-84
2023/09/02 10:51:19;;;;;;;13.98;11.38;;;20.70;99.90;;;;;;5093678;28;20032;-84
2023/09/02 10:53:47;;;;;;;15.20;12.48;;;20.60;99.90;;;;;;5094357;28;20035;-85
2023/09/02 10:56:24;;;;;;;14.38;11.10;;;20.60;99.90;;;;;;5092643;28;20077;-84
2023/09/02 10:58:50;;;;;;;13.50;11.30;;;20.50;99.90;;;;;;5094649;28;20115;-84
2023/09/02 11:01:16;;;;;;;13.23;10.25;;;20.50;99.90;;;;;;5093564;28;20515;-84
2023/09/02 11:03:49;;;;;;;11.43;10.23;;;20.50;99.90;;;;;;5094183;28;20073;-84
2023/09/02 11:06:15;;;;;;;12.57;11.38;;;20.60;99.90;;;;;;5093004;28;20036;-84
2023/09/02 11:08:51;;;;;;;12.23;10.98;;;20.50;99.90;;;;;;5094310;28;20063;-82
2023/09/02 11:11:18;;;;;;;14.05;11.77;;;20.50;99.90;;;;;;5092615;28;20078;-84
2023/09/02 11:14:17;;;;;;;12.02;9.57;;;20.40;99.90;;;;;;5092500;28;20078;-84
2023/09/02 11:16:43;;;;;;;10.52;9.43;;;20.40;99.90;;;;;;5059644;28;20040;-83
2023/09/02 11:19:08;;;;;;;7.82;7.13;;;20.50;99.90;;;;;;5075981;28;20525;-84
2023/09/02 11:21:46;;;;;;;10.48;8.32;;;20.50;99.90;;;;;;5076369;28;20032;-84
2023/09/02 11:24:19;;;;;;;8.13;7.43;;;20.70;99.90;;;;;;5093341;28;20035;-84
2023/09/02 11:26:52;;;;;;;7.03;6.43;;;21.00;99.90;;;;;;5093168;28;20024;-84
2023/09/02 11:29:25;;;;;;;6.38;5.88;;;21.20;99.90;;;;;;5094031;28;20024;-83
2023/09/02 11:32:03;;;;;;;7.47;6.65;;;21.30;99.90;;;;;;5093448;28;20026;-83
2023/09/02 11:34:30;;;;;;;9.73;7.72;;;21.30;99.90;;;;;;5092952;28;20024;-83
2023/09/02 11:37:00;;;;;;;8.48;7.68;;;21.30;99.90;;;;;;5092734;28;20111;-84
2023/09/02 11:39:28;;;;;;;9.10;8.15;;;21.40;99.90;;;;;;5093957;28;20380;-83
2023/09/02 11:42:09;;;;;;;9.70;8.30;;;21.30;99.90;;;;;;5094384;28;20048;-83
2023/09/02 11:44:35;;;;;;;10.05;7.22;;;21.20;99.90;;;;;;5093912;28;20058;-84
2023/09/02 11:47:02;;;;;;;10.27;8.95;;;21.20;99.90;;;;;;5093741;28;20020;-83
2023/09/02 11:49:28;;;;;;;8.73;7.32;;;21.10;99.90;;;;;;5093092;28;20055;-84
2023/09/02 11:51:54;;;;;;;7.05;6.25;;;21.10;99.90;;;;;;5094273;28;20028;-83
2023/09/02 11:54:20;;;;;;;8.70;7.18;;;21.20;99.90;;;;;;5094079;28;20107;-83
2023/09/02 11:57:00;;;;;;;7.70;6.90;;;21.20;99.90;;;;;;5094712;28;20110;-86
2023/09/02 11:59:26;;;;;;;8.23;7.43;;;21.20;99.90;;;;;;5093544;28;20029;-86
2023/09/02 12:02:17;;;;;;;7.10;6.47;;;21.30;99.90;;;;;;5075483;28;20350;-86
2023/09/02 12:04:47;;;;;;;6.68;5.97;;;21.40;99.90;;;;;;5093587;28;20035;-86
2023/09/02 12:07:13;;;;;;;6.13;5.55;;;21.50;99.90;;;;;;5096287;28;20408;-84
2023/09/02 12:09:39;;;;;;;7.38;5.90;;;21.50;99.90;;;;;;5103908;28;20032;-83
2023/09/02 12:12:06;;;;;;;5.80;5.30;;;21.50;99.90;;;;;;5106497;28;20468;-83
2023/09/02 12:14:32;;;;;;;5.85;5.35;;;21.50;99.90;;;;;;5105043;28;20032;-84
2023/09/02 12:17:00;;;;;;;5.53;5.03;;;21.50;99.90;;;;;;5105534;28;20024;-84
2023/09/02 12:19:26;;;;;;;4.85;4.45;;;21.50;99.90;;;;;;5109468;28;20028;-83
2023/09/02 12:21:53;;;;;;;4.35;3.95;;;21.50;99.90;;;;;;5105078;28;20094;-83
2023/09/02 12:24:19;;;;;;;4.85;4.45;;;21.50;99.90;;;;;;5102560;28;20091;-84
2023/09/02 12:26:47;;;;;;;4.07;3.70;;;21.70;99.90;;;;;;5101388;28;20032;-83
2023/09/02 12:29:21;;;;;;;4.88;3.70;;;22.10;99.90;;;;;;5100864;28;20042;-83
2023/09/02 12:31:58;;;;;;;4.40;3.88;;;22.40;99.90;;;;;;5101568;28;20035;-82